Island Breeze — WDA3596 — position and weather

sailwx.info

Track history (hours):
 
Tides and Currents Weather Stations Pressure Air Temp Water Temp Dewpoint Dewpoint Depression Visibility Wind Speed Wind Dir Waves Ship Positions

Island Breeze

Owner: Island Tug & Barge Co., Seattle, WA. More information available from US FCC via Universal Licensing System and Coast Guard Vessel Documentation Center.

Last reported at 2015-Mar-26 15:25 UTC. Time now 2015-Apr-01 16:32 UTC.
Position N 47°34' W 122°21'.

Length 18 m.

Type: Tug. MMSI: 366800090.

Date/timePositionNaut miles runAvg speedWind from/ knotsBaromVisibWave heightAir tempDewpointWater temp
2015-Mar-26 15:25N 47°34' W 122°21'0 4.2
2015-Mar-26 15:21N 47°34' W 122°21'0 0.0
2015-Mar-26 06:50N 47°34' W 122°21'1 2.6
2015-Mar-26 06:33N 47°34' W 122°21'0 0.0
2015-Mar-26 06:30N 47°34' W 122°21'0 0.9
2015-Mar-26 06:10N 47°34' W 122°21'0 0.2
2015-Mar-26 05:33N 47°34' W 122°21'1 1.2
2015-Mar-26 04:33N 47°33' W 122°20'0 1.3
2015-Mar-26 04:30N 47°33' W 122°20'1 1.2
2015-Mar-26 03:33N 47°34' W 122°21'0 0.1
2015-Mar-26 03:24N 47°34' W 122°21'1 0.1
2015-Mar-25 22:15N 47°34' W 122°21'0 0.0
2015-Mar-25 22:15N 47°34' W 122°21'0 0.7
2015-Mar-25 21:33N 47°35' W 122°22'0 6.2
2015-Mar-25 21:29N 47°35' W 122°22'2 1.7
2015-Mar-25 20:33N 47°36' W 122°24'1 6.9
2015-Mar-25 20:24N 47°36' W 122°25'7 7.9
2015-Mar-25 19:33N 47°30' W 122°30'1 7.2
2015-Mar-25 19:28N 47°29' W 122°30'7 7.9
2015-Mar-25 18:33N 47°22' W 122°32'8 8.2
2015-Mar-25 17:33N 47°14' W 122°35'7 6.5
2015-Mar-25 16:33N 47°08' W 122°39'0 0.0
2015-Mar-25 15:33N 47°08' W 122°39'0 0.0
2015-Mar-25 14:29N 47°08' W 122°39'0 0.0
2015-Mar-25 13:23N 47°08' W 122°39'0 0.0
2015-Mar-25 12:09N 47°08' W 122°39'5 4.9
2015-Mar-25 11:14N 47°12' W 122°36'5 7.4
2015-Mar-25 10:33N 47°17' W 122°33'6 6.3
2015-Mar-25 09:33N 47°23' W 122°32'6 7.1
2015-Mar-25 08:45N 47°29' W 122°31'1 6.8
2015-Mar-25 08:33N 47°30' W 122°30'1 6.7
2015-Mar-25 08:25N 47°31' W 122°29'6 7.3
2015-Mar-25 07:33N 47°37' W 122°28'0 6.4
2015-Mar-25 07:31N 47°37' W 122°28'4 4.2
2015-Mar-25 06:33N 47°40' W 122°24'0 3.2
2015-Mar-25 06:31N 47°40' W 122°24'0 0.6
2015-Mar-25 06:11N 47°40' W 122°23'3 4.3
2015-Mar-25 05:33N 47°39' W 122°20'5 5.0
2015-Mar-25 04:33N 47°43' W 122°16'0 7.1
2015-Mar-25 04:31N 47°43' W 122°16'2 2.2
2015-Mar-25 03:32N 47°45' W 122°16'0 2.2
2015-Mar-25 03:20N 47°45' W 122°15'3 3.9
2015-Mar-25 02:33N 47°42' W 122°15'0 6.3
2015-Mar-25 02:30N 47°42' W 122°15'4 4.2
2015-Mar-25 01:33N 47°39' W 122°19'0 3.2
2015-Mar-25 01:30N 47°39' W 122°20'3 3.0
2015-Mar-25 00:33N 47°40' W 122°24'0 1.5
2015-Mar-25 00:30N 47°40' W 122°24'2 2.1
2015-Mar-24 23:33N 47°40' W 122°27'0 6.0
2015-Mar-24 23:30N 47°40' W 122°27'5 5.8
2015-Mar-24 22:33N 47°35' W 122°22'0 0.7
2015-Mar-24 22:30N 47°35' W 122°22'1 1.1
2015-Mar-24 21:33N 47°34' W 122°21'0 6.1
2015-Mar-24 21:30N 47°35' W 122°22'3 3.3
2015-Mar-24 20:33N 47°34' W 122°26'0 7.0
2015-Mar-24 20:29N 47°34' W 122°26'8 8.6
2015-Mar-24 19:33N 47°27' W 122°31'1 8.4
2015-Mar-24 19:24N 47°25' W 122°32'8 9.3
2015-Mar-24 18:33N 47°18' W 122°33'9 9.0
2015-Mar-24 17:33N 47°10' W 122°39'2 1.5
2015-Mar-24 16:32N 47°08' W 122°39'0 0.0
2015-Mar-24 15:26N 47°08' W 122°39'0 0.0
2015-Mar-24 14:33N 47°08' W 122°39'6 5.7
2015-Mar-24 13:33N 47°13' W 122°35'9 9.2
2015-Mar-24 12:33N 47°22' W 122°32'7 7.5
2015-Mar-24 11:34N 47°29' W 122°30'0 6.5
2015-Mar-24 11:33N 47°30' W 122°30'4 7.4
2015-Mar-24 11:04N 47°33' W 122°28'4 7.7
2015-Mar-24 10:33N 47°36' W 122°24'1 7.1
2015-Mar-24 10:28N 47°36' W 122°23'2 1.3
2015-Mar-24 08:51N 47°34' W 122°21'0 0.0
2015-Mar-24 08:32N 47°34' W 122°21'0 0.0
2015-Mar-24 08:31N 47°34' W 122°21'1 0.6
2015-Mar-24 07:33N 47°34' W 122°21'0 1.5
2015-Mar-24 07:31N 47°34' W 122°21'1 0.7
2015-Mar-24 06:33N 47°34' W 122°21'0 0.0
2015-Mar-24 06:31N 47°34' W 122°21'0 0.0
2015-Mar-24 06:06N 47°34' W 122°21'0 0.0
2015-Mar-24 05:34N 47°34' W 122°21'0 0.0
2015-Mar-24 04:33N 47°34' W 122°21'0 0.0
2015-Mar-24 04:31N 47°34' W 122°21'0 0.0
2015-Mar-24 03:33N 47°34' W 122°21'0 0.0
2015-Mar-24 03:31N 47°34' W 122°21'0 0.0
2015-Mar-24 02:31N 47°34' W 122°21'0 0.0
2015-Mar-24 02:31N 47°34' W 122°21'0 0.0
2015-Mar-24 01:33N 47°34' W 122°21'0 0.0
2015-Mar-24 01:31N 47°34' W 122°21'0 0.0
2015-Mar-24 00:33N 47°34' W 122°21'0 0.0
2015-Mar-24 00:31N 47°34' W 122°21'0 0.0
2015-Mar-23 23:33N 47°34' W 122°21'0 0.0
2015-Mar-23 23:31N 47°34' W 122°21'0 0.0
2015-Mar-23 22:34N 47°34' W 122°21'0 0.0
2015-Mar-23 22:30N 47°34' W 122°21'0 0.0
2015-Mar-23 21:33N 47°34' W 122°21'0 0.0
2015-Mar-23 21:30N 47°34' W 122°21'0 0.0
2015-Mar-23 20:33N 47°34' W 122°21'0 0.0
2015-Mar-23 20:30N 47°34' W 122°21'0 0.0
2015-Mar-23 19:33N 47°34' W 122°21'0 0.0
2015-Mar-23 19:30N 47°34' W 122°21'0 0.0
2015-Mar-23 18:32N 47°34' W 122°21'0 0.0
2015-Mar-23 18:30N 47°34' W 122°21'0 0.0
2015-Mar-23 17:33N 47°34' W 122°21'0 0.0
2015-Mar-23 17:30N 47°34' W 122°21'0 0.0
2015-Mar-23 16:33N 47°34' W 122°21'0 0.0
2015-Mar-23 16:30N 47°34' W 122°21'0 0.0
2015-Mar-23 15:34N 47°34' W 122°21'0 0.0
2015-Mar-23 15:29N 47°34' W 122°21'0 0.0
2015-Mar-23 14:33N 47°34' W 122°21'0 0.0
2015-Mar-23 14:24N 47°34' W 122°21'0 0.0
2015-Mar-23 13:33N 47°34' W 122°21'0 0.0
2015-Mar-23 13:29N 47°34' W 122°21'0 0.0
2015-Mar-23 12:34N 47°34' W 122°21'0 0.1
2015-Mar-23 12:29N 47°34' W 122°21'0 0.0
2015-Mar-23 11:33N 47°34' W 122°21'0 0.0
2015-Mar-23 11:24N 47°34' W 122°21'0 0.0
2015-Mar-23 10:33N 47°34' W 122°21'0 0.0
2015-Mar-23 10:24N 47°34' W 122°21'0 0.0
2015-Mar-23 09:33N 47°34' W 122°21'0 0.0
2015-Mar-23 09:29N 47°34' W 122°21'0 0.0
2015-Mar-23 08:33N 47°34' W 122°21'0 0.0
2015-Mar-23 08:17N 47°34' W 122°21'0 0.0
2015-Mar-23 07:33N 47°34' W 122°21'0 0.0
2015-Mar-23 07:32N 47°34' W 122°21'0 0.0
2015-Mar-23 06:33N 47°34' W 122°21'0 0.0
2015-Mar-23 06:32N 47°34' W 122°21'0 0.0
2015-Mar-23 06:02N 47°34' W 122°21'0 0.0
2015-Mar-23 05:33N 47°34' W 122°21'0 0.0
2015-Mar-23 04:33N 47°34' W 122°21'0 0.0
2015-Mar-23 04:32N 47°34' W 122°21'0 0.0
2015-Mar-23 03:33N 47°34' W 122°21'0 0.0
2015-Mar-23 03:32N 47°34' W 122°21'0 0.0
2015-Mar-23 02:34N 47°34' W 122°21'0 0.0
2015-Mar-23 02:32N 47°34' W 122°21'0 0.0
2015-Mar-23 01:33N 47°34' W 122°21'0 0.0
2015-Mar-23 01:31N 47°34' W 122°21'0 0.0
2015-Mar-23 00:33N 47°34' W 122°21'0 0.0
2015-Mar-23 00:31N 47°34' W 122°21'0 0.0
2015-Mar-22 23:34N 47°34' W 122°21'0 0.0
2015-Mar-22 23:31N 47°34' W 122°21'0 0.0
2015-Mar-22 22:34N 47°34' W 122°21'0 0.0
2015-Mar-22 22:31N 47°34' W 122°21'0 0.0
2015-Mar-22 21:34N 47°34' W 122°21'0 0.0
2015-Mar-22 21:31N 47°34' W 122°21'0 0.0
2015-Mar-22 20:33N 47°34' W 122°21'0 0.0
2015-Mar-22 20:31N 47°34' W 122°21'0 0.0
2015-Mar-22 19:33N 47°34' W 122°21'0 0.0
2015-Mar-22 19:31N 47°34' W 122°21'0 0.0
2015-Mar-22 18:33N 47°34' W 122°21'0 0.0
2015-Mar-22 18:31N 47°34' W 122°21'0 0.0
2015-Mar-22 17:33N 47°34' W 122°21'0 0.0
2015-Mar-22 17:31N 47°34' W 122°21'0 0.0
2015-Mar-22 16:33N 47°34' W 122°21'0 0.0
2015-Mar-22 16:25N 47°34' W 122°21'0 0.0
2015-Mar-22 15:34N 47°34' W 122°21'0 0.0
2015-Mar-22 15:30N 47°34' W 122°21'0 0.0
2015-Mar-22 14:33N 47°34' W 122°21'0 0.0
2015-Mar-22 14:30N 47°34' W 122°21'1 0.6
2015-Mar-22 13:33N 47°34' W 122°21'0 0.1
2015-Mar-22 13:30N 47°34' W 122°21'1 0.0
2015-Mar-21 19:20N 47°34' W 122°21'0 1.8
2015-Mar-21 19:17N 47°34' W 122°21'0 0.1
2015-Mar-21 18:33N 47°34' W 122°21'0 2.6
2015-Mar-21 18:32N 47°34' W 122°21'0 0.0
2015-Mar-21 08:42N 47°34' W 122°21'1 5.1
2015-Mar-21 08:33N 47°35' W 122°22'0 8.1
2015-Mar-21 08:33N 47°35' W 122°22'4 3.7
2015-Mar-21 07:33N 47°38' W 122°25'0 7.4
2015-Mar-21 07:33N 47°38' W 122°26'2 2.5
2015-Mar-21 06:33N 47°40' W 122°24'0 4.8
2015-Mar-21 06:32N 47°40' W 122°24'1 3.2
2015-Mar-21 06:12N 47°39' W 122°22'3 5.1
2015-Mar-21 05:33N 47°39' W 122°17'6 6.3
2015-Mar-21 04:33N 47°45' W 122°16'0 0.3
2015-Mar-21 03:33N 47°45' W 122°16'3 3.7
2015-Mar-21 02:42N 47°42' W 122°15'1 6.7
2015-Mar-21 02:33N 47°41' W 122°15'3 5.5
2015-Mar-21 02:01N 47°39' W 122°17'2 4.0
2015-Mar-21 01:33N 47°39' W 122°20'0 3.8
2015-Mar-21 01:31N 47°39' W 122°20'3 2.7
2015-Mar-21 00:33N 47°40' W 122°23'0 0.1
2015-Mar-21 00:31N 47°40' W 122°23'1 0.6
2015-Mar-20 23:33N 47°40' W 122°24'0 0.1
2015-Mar-20 23:31N 47°40' W 122°24'2 2.3
2015-Mar-20 22:33N 47°39' W 122°27'0 6.1
2015-Mar-20 22:31N 47°39' W 122°27'6 6.4
2015-Mar-20 21:33N 47°33' W 122°27'0 5.9
2015-Mar-20 21:30N 47°32' W 122°28'6 6.8
2015-Mar-20 20:33N 47°26' W 122°31'0 6.8
2015-Mar-20 20:30N 47°26' W 122°31'7 7.4
2015-Mar-20 19:33N 47°19' W 122°33'8 7.9
2015-Mar-20 18:33N 47°12' W 122°37'4 3.4
2015-Mar-20 17:26N 47°08' W 122°39'0 0.0
2015-Mar-20 16:32N 47°08' W 122°39'0 0.0
2015-Mar-20 15:33N 47°08' W 122°39'5 4.5
2015-Mar-20 14:27N 47°12' W 122°35'6 6.6
2015-Mar-20 13:33N 47°18' W 122°33'4 5.8
2015-Mar-20 12:49N 47°17' W 122°27'1 3.0
2015-Mar-20 12:33N 47°16' W 122°26'1 1.4
2015-Mar-20 11:33N 47°17' W 122°26'5 4.8
2015-Mar-20 10:33N 47°19' W 122°33'4 4.0
2015-Mar-20 09:33N 47°15' W 122°34'6 5.6
2015-Mar-20 08:33N 47°10' W 122°38'2 2.0
2015-Mar-20 07:33N 47°08' W 122°39'0 0.0
2015-Mar-20 06:32N 47°08' W 122°39'6 6.6
2015-Mar-20 05:33N 47°14' W 122°35'5 5.0
2015-Mar-20 04:33N 47°19' W 122°33'7 6.4
2015-Mar-20 03:29N 47°16' W 122°24'5 4.8
2015-Mar-20 02:33N 47°19' W 122°30'7 7.1
2015-Mar-20 01:33N 47°26' W 122°32'3 7.3
2015-Mar-20 01:08N 47°29' W 122°31'4 7.6
2015-Mar-20 00:33N 47°33' W 122°28'1 7.9
2015-Mar-20 00:23N 47°34' W 122°28'6 7.9
2015-Mar-19 23:33N 47°40' W 122°28'0 4.8
2015-Mar-19 23:32N 47°41' W 122°28'4 4.1
2015-Mar-19 22:33N 47°39' W 122°22'0 4.2
2015-Mar-19 22:33N 47°39' W 122°22'4 3.8
2015-Mar-19 21:33N 47°39' W 122°17'0 0.0
2015-Mar-19 21:33N 47°39' W 122°17'3 3.0
2015-Mar-19 20:33N 47°41' W 122°15'4 5.9
2015-Mar-19 19:57N 47°45' W 122°16'1 1.7
2015-Mar-19 19:33N 47°45' W 122°15'0 0.1
2015-Mar-19 18:33N 47°45' W 122°15'3 4.8
2015-Mar-19 17:52N 47°42' W 122°15'2 6.3
2015-Mar-19 17:33N 47°40' W 122°15'2 5.2
2015-Mar-19 17:07N 47°39' W 122°18'2 2.9
2015-Mar-19 16:33N 47°39' W 122°20'0 4.9
2015-Mar-19 16:32N 47°39' W 122°20'2 2.3
2015-Mar-19 15:33N 47°40' W 122°23'0 0.0
2015-Mar-19 15:31N 47°40' W 122°23'0 0.5
2015-Mar-19 14:33N 47°40' W 122°24'0 0.0
2015-Mar-19 14:31N 47°40' W 122°24'2 2.5
2015-Mar-19 13:33N 47°39' W 122°27'0 7.0
2015-Mar-19 13:30N 47°38' W 122°27'6 6.7
2015-Mar-19 12:33N 47°32' W 122°28'0 7.5
2015-Mar-19 12:30N 47°32' W 122°29'7 7.3
2015-Mar-19 11:33N 47°25' W 122°32'1 7.5
2015-Mar-19 11:25N 47°24' W 122°32'6 6.7
2015-Mar-19 10:33N 47°19' W 122°29'5 4.9
2015-Mar-19 09:33N 47°16' W 122°23'1 0.4
2015-Mar-19 08:17N 47°17' W 122°23'4 5.6
2015-Mar-19 07:33N 47°18' W 122°29'3 2.6
2015-Mar-19 06:33N 47°17' W 122°33'7 7.0
2015-Mar-19 05:33N 47°11' W 122°38'3 2.9
2015-Mar-19 04:31N 47°08' W 122°39'0 0.0
2015-Mar-19 03:27N 47°08' W 122°39'0 0.0
2015-Mar-19 02:33N 47°08' W 122°39'3 2.4
2015-Mar-19 01:31N 47°11' W 122°38'7 6.9
2015-Mar-19 00:33N 47°16' W 122°33'4 4.3
2015-Mar-18 23:33N 47°18' W 122°27'2 1.3
2015-Mar-18 22:12N 47°17' W 122°25'2 3.0
2015-Mar-18 21:33N 47°17' W 122°28'3 3.1
2015-Mar-18 20:32N 47°18' W 122°32'4 4.4
2015-Mar-18 19:33N 47°14' W 122°34'7 6.4
2015-Mar-18 18:31N 47°08' W 122°39'0 0.0
2015-Mar-18 17:29N 47°08' W 122°39'0 0.0
2015-Mar-18 16:33N 47°08' W 122°39'0 0.0
2015-Mar-18 15:27N 47°08' W 122°39'0 0.0
2015-Mar-18 14:23N 47°08' W 122°39'0 0.0
2015-Mar-18 13:29N 47°08' W 122°39'2 1.8
2015-Mar-18 12:33N 47°10' W 122°39'7 6.6
2015-Mar-18 11:33N 47°15' W 122°34'8 8.1
2015-Mar-18 10:33N 47°24' W 122°32'8 7.8
2015-Mar-18 09:33N 47°31' W 122°29'5 8.2
2015-Mar-18 08:58N 47°36' W 122°28'3 8.2
2015-Mar-18 08:33N 47°39' W 122°28'0 7.9
2015-Mar-18 08:32N 47°39' W 122°28'4 3.6
2015-Mar-18 07:33N 47°40' W 122°23'0 6.4
2015-Mar-18 07:33N 47°40' W 122°23'4 4.3
2015-Mar-18 06:33N 47°39' W 122°17'0 8.6
2015-Mar-18 06:33N 47°39' W 122°17'2 7.1
2015-Mar-18 06:13N 47°41' W 122°15'4 6.9
2015-Mar-18 05:33N 47°45' W 122°16'0 0.5
2015-Mar-18 04:33N 47°45' W 122°15'0 1.1
2015-Mar-18 04:07N 47°45' W 122°16'0 0.1
2015-Mar-18 03:33N 47°45' W 122°16'0 1.5
2015-Mar-18 03:22N 47°45' W 122°16'5 5.9
2015-Mar-18 02:32N 47°40' W 122°15'2 5.2
2015-Mar-18 02:12N 47°39' W 122°17'2 3.8
2015-Mar-18 01:33N 47°39' W 122°20'0 6.2
2015-Mar-18 01:32N 47°39' W 122°21'2 2.4
2015-Mar-18 00:33N 47°40' W 122°24'0 0.0
2015-Mar-18 00:31N 47°40' W 122°24'0 0.2
2015-Mar-17 23:33N 47°40' W 122°24'0 0.0
2015-Mar-17 23:31N 47°40' W 122°24'2 2.3
2015-Mar-17 22:33N 47°39' W 122°27'0 6.8
2015-Mar-17 22:31N 47°39' W 122°27'6 6.6
2015-Mar-17 21:33N 47°32' W 122°28'0 6.7
2015-Mar-17 21:30N 47°32' W 122°28'6 6.8
2015-Mar-17 20:33N 47°26' W 122°31'0 6.8
2015-Mar-17 20:30N 47°26' W 122°32'6 6.5
2015-Mar-17 19:33N 47°20' W 122°33'4 4.2
2015-Mar-17 18:33N 47°15' W 122°34'7 6.6
2015-Mar-17 17:33N 47°10' W 122°39'2 1.7
2015-Mar-17 16:33N 47°08' W 122°39'0 0.0
2015-Mar-17 15:25N 47°08' W 122°39'0 0.0
2015-Mar-17 14:33N 47°08' W 122°39'0 0.0
2015-Mar-17 13:03N 47°08' W 122°39'0 0.1
2015-Mar-17 12:33N 47°08' W 122°39'0 0.0
2015-Mar-17 11:33N 47°08' W 122°39'0 0.0
2015-Mar-17 10:32N 47°08' W 122°39'0 0.1
2015-Mar-17 09:33N 47°08' W 122°39'7 7.4
2015-Mar-17 08:33N 47°15' W 122°34'9 8.9
2015-Mar-17 07:33N 47°24' W 122°32'3 7.5
2015-Mar-17 07:07N 47°27' W 122°31'4 7.7
2015-Mar-17 06:33N 47°31' W 122°29'1 7.7
2015-Mar-17 06:26N 47°32' W 122°28'3 8.3
2015-Mar-17 06:01N 47°35' W 122°26'2 5.2
2015-Mar-17 05:33N 47°36' W 122°22'1 1.3
2015-Mar-17 04:34N 47°34' W 122°21'0 0.0
2015-Mar-17 04:31N 47°34' W 122°21'0 0.0
2015-Mar-17 03:33N 47°34' W 122°21'0 0.0
2015-Mar-17 03:30N 47°34' W 122°21'1 1.4
2015-Mar-17 02:33N 47°36' W 122°22'1 3.1
2015-Mar-17 02:09N 47°34' W 122°21'1 1.0
2015-Mar-17 01:33N 47°34' W 122°21'0 0.0
2015-Mar-17 01:29N 47°34' W 122°21'0 0.1
2015-Mar-17 00:33N 47°34' W 122°21'0 6.3
2015-Mar-17 00:29N 47°34' W 122°21'3 3.6
2015-Mar-16 23:33N 47°32' W 122°24'8 8.2
2015-Mar-16 22:33N 47°24' W 122°21'6 5.6
2015-Mar-16 21:33N 47°20' W 122°26'1 7.5
2015-Mar-16 21:28N 47°19' W 122°26'2 0.8
2015-Mar-16 19:33N 47°18' W 122°28'7 6.5
2015-Mar-16 18:33N 47°24' W 122°32'5 7.7
2015-Mar-16 17:53N 47°29' W 122°30'2 7.0
2015-Mar-16 17:33N 47°32' W 122°30'0 5.3
2015-Mar-16 17:33N 47°32' W 122°30'5 4.6
2015-Mar-16 16:33N 47°34' W 122°37'0 5.1
2015-Mar-16 16:32N 47°34' W 122°37'3 3.5
2015-Mar-16 15:33N 47°34' W 122°32'0 6.6
2015-Mar-16 15:32N 47°34' W 122°32'  
Track history (hours):
 
Tides and Currents Weather Stations Pressure Air Temp Water Temp Dewpoint Dewpoint Depression Visibility Wind Speed Wind Dir Waves Ship Positions

Island Breeze

Owner: Island Tug & Barge Co., Seattle, WA. More information available from US FCC via Universal Licensing System and Coast Guard Vessel Documentation Center.

Last reported at 2015-Mar-26 15:25 UTC. Time now 2015-Apr-01 16:32 UTC.
Position N 47°34' W 122°21'.

Length 18 m.

Type: Tug. MMSI: 366800090.

Date/timePositionNaut miles runAvg speedWind from/ knotsBaromVisibWave heightAir tempDewpointWater temp
2015-Mar-26 15:25N 47°34' W 122°21'0 4.2
2015-Mar-26 15:21N 47°34' W 122°21'0 0.0
2015-Mar-26 06:50N 47°34' W 122°21'1 2.6
2015-Mar-26 06:33N 47°34' W 122°21'0 0.0
2015-Mar-26 06:30N 47°34' W 122°21'0 0.9
2015-Mar-26 06:10N 47°34' W 122°21'0 0.2
2015-Mar-26 05:33N 47°34' W 122°21'1 1.2
2015-Mar-26 04:33N 47°33' W 122°20'0 1.3
2015-Mar-26 04:30N 47°33' W 122°20'1 1.2
2015-Mar-26 03:33N 47°34' W 122°21'0 0.1
2015-Mar-26 03:24N 47°34' W 122°21'1 0.1
2015-Mar-25 22:15N 47°34' W 122°21'0 0.0
2015-Mar-25 22:15N 47°34' W 122°21'0 0.7
2015-Mar-25 21:33N 47°35' W 122°22'0 6.2
2015-Mar-25 21:29N 47°35' W 122°22'2 1.7
2015-Mar-25 20:33N 47°36' W 122°24'1 6.9
2015-Mar-25 20:24N 47°36' W 122°25'7 7.9
2015-Mar-25 19:33N 47°30' W 122°30'1 7.2
2015-Mar-25 19:28N 47°29' W 122°30'7 7.9
2015-Mar-25 18:33N 47°22' W 122°32'8 8.2
2015-Mar-25 17:33N 47°14' W 122°35'7 6.5
2015-Mar-25 16:33N 47°08' W 122°39'0 0.0
2015-Mar-25 15:33N 47°08' W 122°39'0 0.0
2015-Mar-25 14:29N 47°08' W 122°39'0 0.0
2015-Mar-25 13:23N 47°08' W 122°39'0 0.0
2015-Mar-25 12:09N 47°08' W 122°39'5 4.9
2015-Mar-25 11:14N 47°12' W 122°36'5 7.4
2015-Mar-25 10:33N 47°17' W 122°33'6 6.3
2015-Mar-25 09:33N 47°23' W 122°32'6 7.1
2015-Mar-25 08:45N 47°29' W 122°31'1 6.8
2015-Mar-25 08:33N 47°30' W 122°30'1 6.7
2015-Mar-25 08:25N 47°31' W 122°29'6 7.3
2015-Mar-25 07:33N 47°37' W 122°28'0 6.4
2015-Mar-25 07:31N 47°37' W 122°28'4 4.2
2015-Mar-25 06:33N 47°40' W 122°24'0 3.2
2015-Mar-25 06:31N 47°40' W 122°24'0 0.6
2015-Mar-25 06:11N 47°40' W 122°23'3 4.3
2015-Mar-25 05:33N 47°39' W 122°20'5 5.0
2015-Mar-25 04:33N 47°43' W 122°16'0 7.1
2015-Mar-25 04:31N 47°43' W 122°16'2 2.2
2015-Mar-25 03:32N 47°45' W 122°16'0 2.2
2015-Mar-25 03:20N 47°45' W 122°15'3 3.9
2015-Mar-25 02:33N 47°42' W 122°15'0 6.3
2015-Mar-25 02:30N 47°42' W 122°15'4 4.2
2015-Mar-25 01:33N 47°39' W 122°19'0 3.2
2015-Mar-25 01:30N 47°39' W 122°20'3 3.0
2015-Mar-25 00:33N 47°40' W 122°24'0 1.5
2015-Mar-25 00:30N 47°40' W 122°24'2 2.1
2015-Mar-24 23:33N 47°40' W 122°27'0 6.0
2015-Mar-24 23:30N 47°40' W 122°27'5 5.8
2015-Mar-24 22:33N 47°35' W 122°22'0 0.7
2015-Mar-24 22:30N 47°35' W 122°22'1 1.1
2015-Mar-24 21:33N 47°34' W 122°21'0 6.1
2015-Mar-24 21:30N 47°35' W 122°22'3 3.3
2015-Mar-24 20:33N 47°34' W 122°26'0 7.0
2015-Mar-24 20:29N 47°34' W 122°26'8 8.6
2015-Mar-24 19:33N 47°27' W 122°31'1 8.4
2015-Mar-24 19:24N 47°25' W 122°32'8 9.3
2015-Mar-24 18:33N 47°18' W 122°33'9 9.0
2015-Mar-24 17:33N 47°10' W 122°39'2 1.5
2015-Mar-24 16:32N 47°08' W 122°39'0 0.0
2015-Mar-24 15:26N 47°08' W 122°39'0 0.0
2015-Mar-24 14:33N 47°08' W 122°39'6 5.7
2015-Mar-24 13:33N 47°13' W 122°35'9 9.2
2015-Mar-24 12:33N 47°22' W 122°32'7 7.5
2015-Mar-24 11:34N 47°29' W 122°30'0 6.5
2015-Mar-24 11:33N 47°30' W 122°30'4 7.4
2015-Mar-24 11:04N 47°33' W 122°28'4 7.7
2015-Mar-24 10:33N 47°36' W 122°24'1 7.1
2015-Mar-24 10:28N 47°36' W 122°23'2 1.3
2015-Mar-24 08:51N 47°34' W 122°21'0 0.0
2015-Mar-24 08:32N 47°34' W 122°21'0 0.0
2015-Mar-24 08:31N 47°34' W 122°21'1 0.6
2015-Mar-24 07:33N 47°34' W 122°21'0 1.5
2015-Mar-24 07:31N 47°34' W 122°21'1 0.7
2015-Mar-24 06:33N 47°34' W 122°21'0 0.0
2015-Mar-24 06:31N 47°34' W 122°21'0 0.0
2015-Mar-24 06:06N 47°34' W 122°21'0 0.0
2015-Mar-24 05:34N 47°34' W 122°21'0 0.0
2015-Mar-24 04:33N 47°34' W 122°21'0 0.0
2015-Mar-24 04:31N 47°34' W 122°21'0 0.0
2015-Mar-24 03:33N 47°34' W 122°21'0 0.0
2015-Mar-24 03:31N 47°34' W 122°21'0 0.0
2015-Mar-24 02:31N 47°34' W 122°21'0 0.0
2015-Mar-24 02:31N 47°34' W 122°21'0 0.0
2015-Mar-24 01:33N 47°34' W 122°21'0 0.0
2015-Mar-24 01:31N 47°34' W 122°21'0 0.0
2015-Mar-24 00:33N 47°34' W 122°21'0 0.0
2015-Mar-24 00:31N 47°34' W 122°21'0 0.0
2015-Mar-23 23:33N 47°34' W 122°21'0 0.0
2015-Mar-23 23:31N 47°34' W 122°21'0 0.0
2015-Mar-23 22:34N 47°34' W 122°21'0 0.0
2015-Mar-23 22:30N 47°34' W 122°21'0 0.0
2015-Mar-23 21:33N 47°34' W 122°21'0 0.0
2015-Mar-23 21:30N 47°34' W 122°21'0 0.0
2015-Mar-23 20:33N 47°34' W 122°21'0 0.0
2015-Mar-23 20:30N 47°34' W 122°21'0 0.0
2015-Mar-23 19:33N 47°34' W 122°21'0 0.0
2015-Mar-23 19:30N 47°34' W 122°21'0 0.0
2015-Mar-23 18:32N 47°34' W 122°21'0 0.0
2015-Mar-23 18:30N 47°34' W 122°21'0 0.0
2015-Mar-23 17:33N 47°34' W 122°21'0 0.0
2015-Mar-23 17:30N 47°34' W 122°21'0 0.0
2015-Mar-23 16:33N 47°34' W 122°21'0 0.0
2015-Mar-23 16:30N 47°34' W 122°21'0 0.0
2015-Mar-23 15:34N 47°34' W 122°21'0 0.0
2015-Mar-23 15:29N 47°34' W 122°21'0 0.0
2015-Mar-23 14:33N 47°34' W 122°21'0 0.0
2015-Mar-23 14:24N 47°34' W 122°21'0 0.0
2015-Mar-23 13:33N 47°34' W 122°21'0 0.0
2015-Mar-23 13:29N 47°34' W 122°21'0 0.0
2015-Mar-23 12:34N 47°34' W 122°21'0 0.1
2015-Mar-23 12:29N 47°34' W 122°21'0 0.0
2015-Mar-23 11:33N 47°34' W 122°21'0 0.0
2015-Mar-23 11:24N 47°34' W 122°21'0 0.0
2015-Mar-23 10:33N 47°34' W 122°21'0 0.0
2015-Mar-23 10:24N 47°34' W 122°21'0 0.0
2015-Mar-23 09:33N 47°34' W 122°21'0 0.0
2015-Mar-23 09:29N 47°34' W 122°21'0 0.0
2015-Mar-23 08:33N 47°34' W 122°21'0 0.0
2015-Mar-23 08:17N 47°34' W 122°21'0 0.0
2015-Mar-23 07:33N 47°34' W 122°21'0 0.0
2015-Mar-23 07:32N 47°34' W 122°21'0 0.0
2015-Mar-23 06:33N 47°34' W 122°21'0 0.0
2015-Mar-23 06:32N 47°34' W 122°21'0 0.0
2015-Mar-23 06:02N 47°34' W 122°21'0 0.0
2015-Mar-23 05:33N 47°34' W 122°21'0 0.0
2015-Mar-23 04:33N 47°34' W 122°21'0 0.0
2015-Mar-23 04:32N 47°34' W 122°21'0 0.0
2015-Mar-23 03:33N 47°34' W 122°21'0 0.0
2015-Mar-23 03:32N 47°34' W 122°21'0 0.0
2015-Mar-23 02:34N 47°34' W 122°21'0 0.0
2015-Mar-23 02:32N 47°34' W 122°21'0 0.0
2015-Mar-23 01:33N 47°34' W 122°21'0 0.0
2015-Mar-23 01:31N 47°34' W 122°21'0 0.0
2015-Mar-23 00:33N 47°34' W 122°21'0 0.0
2015-Mar-23 00:31N 47°34' W 122°21'0 0.0
2015-Mar-22 23:34N 47°34' W 122°21'0 0.0
2015-Mar-22 23:31N 47°34' W 122°21'0 0.0
2015-Mar-22 22:34N 47°34' W 122°21'0 0.0
2015-Mar-22 22:31N 47°34' W 122°21'0 0.0
2015-Mar-22 21:34N 47°34' W 122°21'0 0.0
2015-Mar-22 21:31N 47°34' W 122°21'0 0.0
2015-Mar-22 20:33N 47°34' W 122°21'0 0.0
2015-Mar-22 20:31N 47°34' W 122°21'0 0.0
2015-Mar-22 19:33N 47°34' W 122°21'0 0.0
2015-Mar-22 19:31N 47°34' W 122°21'0 0.0
2015-Mar-22 18:33N 47°34' W 122°21'0 0.0
2015-Mar-22 18:31N 47°34' W 122°21'0 0.0
2015-Mar-22 17:33N 47°34' W 122°21'0 0.0
2015-Mar-22 17:31N 47°34' W 122°21'0 0.0
2015-Mar-22 16:33N 47°34' W 122°21'0 0.0
2015-Mar-22 16:25N 47°34' W 122°21'0 0.0
2015-Mar-22 15:34N 47°34' W 122°21'0 0.0
2015-Mar-22 15:30N 47°34' W 122°21'0 0.0
2015-Mar-22 14:33N 47°34' W 122°21'0 0.0
2015-Mar-22 14:30N 47°34' W 122°21'1 0.6
2015-Mar-22 13:33N 47°34' W 122°21'0 0.1
2015-Mar-22 13:30N 47°34' W 122°21'1 0.0
2015-Mar-21 19:20N 47°34' W 122°21'0 1.8
2015-Mar-21 19:17N 47°34' W 122°21'0 0.1
2015-Mar-21 18:33N 47°34' W 122°21'0 2.6
2015-Mar-21 18:32N 47°34' W 122°21'0 0.0
2015-Mar-21 08:42N 47°34' W 122°21'1 5.1
2015-Mar-21 08:33N 47°35' W 122°22'0 8.1
2015-Mar-21 08:33N 47°35' W 122°22'4 3.7
2015-Mar-21 07:33N 47°38' W 122°25'0 7.4
2015-Mar-21 07:33N 47°38' W 122°26'2 2.5
2015-Mar-21 06:33N 47°40' W 122°24'0 4.8
2015-Mar-21 06:32N 47°40' W 122°24'1 3.2
2015-Mar-21 06:12N 47°39' W 122°22'3 5.1
2015-Mar-21 05:33N 47°39' W 122°17'6 6.3
2015-Mar-21 04:33N 47°45' W 122°16'0 0.3
2015-Mar-21 03:33N 47°45' W 122°16'3 3.7
2015-Mar-21 02:42N 47°42' W 122°15'1 6.7
2015-Mar-21 02:33N 47°41' W 122°15'3 5.5
2015-Mar-21 02:01N 47°39' W 122°17'2 4.0
2015-Mar-21 01:33N 47°39' W 122°20'0 3.8
2015-Mar-21 01:31N 47°39' W 122°20'3 2.7
2015-Mar-21 00:33N 47°40' W 122°23'0 0.1
2015-Mar-21 00:31N 47°40' W 122°23'1 0.6
2015-Mar-20 23:33N 47°40' W 122°24'0 0.1
2015-Mar-20 23:31N 47°40' W 122°24'2 2.3
2015-Mar-20 22:33N 47°39' W 122°27'0 6.1
2015-Mar-20 22:31N 47°39' W 122°27'6 6.4
2015-Mar-20 21:33N 47°33' W 122°27'0 5.9
2015-Mar-20 21:30N 47°32' W 122°28'6 6.8
2015-Mar-20 20:33N 47°26' W 122°31'0 6.8
2015-Mar-20 20:30N 47°26' W 122°31'7 7.4
2015-Mar-20 19:33N 47°19' W 122°33'8 7.9
2015-Mar-20 18:33N 47°12' W 122°37'4 3.4
2015-Mar-20 17:26N 47°08' W 122°39'0 0.0
2015-Mar-20 16:32N 47°08' W 122°39'0 0.0
2015-Mar-20 15:33N 47°08' W 122°39'5 4.5
2015-Mar-20 14:27N 47°12' W 122°35'6 6.6
2015-Mar-20 13:33N 47°18' W 122°33'4 5.8
2015-Mar-20 12:49N 47°17' W 122°27'1 3.0
2015-Mar-20 12:33N 47°16' W 122°26'1 1.4
2015-Mar-20 11:33N 47°17' W 122°26'5 4.8
2015-Mar-20 10:33N 47°19' W 122°33'4 4.0
2015-Mar-20 09:33N 47°15' W 122°34'6 5.6
2015-Mar-20 08:33N 47°10' W 122°38'2 2.0
2015-Mar-20 07:33N 47°08' W 122°39'0 0.0
2015-Mar-20 06:32N 47°08' W 122°39'6 6.6
2015-Mar-20 05:33N 47°14' W 122°35'5 5.0
2015-Mar-20 04:33N 47°19' W 122°33'7 6.4
2015-Mar-20 03:29N 47°16' W 122°24'5 4.8
2015-Mar-20 02:33N 47°19' W 122°30'7 7.1
2015-Mar-20 01:33N 47°26' W 122°32'3 7.3
2015-Mar-20 01:08N 47°29' W 122°31'4 7.6
2015-Mar-20 00:33N 47°33' W 122°28'1 7.9
2015-Mar-20 00:23N 47°34' W 122°28'6 7.9
2015-Mar-19 23:33N 47°40' W 122°28'0 4.8
2015-Mar-19 23:32N 47°41' W 122°28'4 4.1
2015-Mar-19 22:33N 47°39' W 122°22'0 4.2
2015-Mar-19 22:33N 47°39' W 122°22'4 3.8
2015-Mar-19 21:33N 47°39' W 122°17'0 0.0
2015-Mar-19 21:33N 47°39' W 122°17'3 3.0
2015-Mar-19 20:33N 47°41' W 122°15'4 5.9
2015-Mar-19 19:57N 47°45' W 122°16'1 1.7
2015-Mar-19 19:33N 47°45' W 122°15'0 0.1
2015-Mar-19 18:33N 47°45' W 122°15'3 4.8
2015-Mar-19 17:52N 47°42' W 122°15'2 6.3
2015-Mar-19 17:33N 47°40' W 122°15'2 5.2
2015-Mar-19 17:07N 47°39' W 122°18'2 2.9
2015-Mar-19 16:33N 47°39' W 122°20'0 4.9
2015-Mar-19 16:32N 47°39' W 122°20'2 2.3
2015-Mar-19 15:33N 47°40' W 122°23'0 0.0
2015-Mar-19 15:31N 47°40' W 122°23'0 0.5
2015-Mar-19 14:33N 47°40' W 122°24'0 0.0
2015-Mar-19 14:31N 47°40' W 122°24'2 2.5
2015-Mar-19 13:33N 47°39' W 122°27'0 7.0
2015-Mar-19 13:30N 47°38' W 122°27'6 6.7
2015-Mar-19 12:33N 47°32' W 122°28'0 7.5
2015-Mar-19 12:30N 47°32' W 122°29'7 7.3
2015-Mar-19 11:33N 47°25' W 122°32'1 7.5
2015-Mar-19 11:25N 47°24' W 122°32'6 6.7
2015-Mar-19 10:33N 47°19' W 122°29'5 4.9
2015-Mar-19 09:33N 47°16' W 122°23'1 0.4
2015-Mar-19 08:17N 47°17' W 122°23'4 5.6
2015-Mar-19 07:33N 47°18' W 122°29'3 2.6
2015-Mar-19 06:33N 47°17' W 122°33'7 7.0
2015-Mar-19 05:33N 47°11' W 122°38'3 2.9
2015-Mar-19 04:31N 47°08' W 122°39'0 0.0
2015-Mar-19 03:27N 47°08' W 122°39'0 0.0
2015-Mar-19 02:33N 47°08' W 122°39'3 2.4
2015-Mar-19 01:31N 47°11' W 122°38'7 6.9
2015-Mar-19 00:33N 47°16' W 122°33'4 4.3
2015-Mar-18 23:33N 47°18' W 122°27'2 1.3
2015-Mar-18 22:12N 47°17' W 122°25'2 3.0
2015-Mar-18 21:33N 47°17' W 122°28'3 3.1
2015-Mar-18 20:32N 47°18' W 122°32'4 4.4
2015-Mar-18 19:33N 47°14' W 122°34'7 6.4
2015-Mar-18 18:31N 47°08' W 122°39'0 0.0
2015-Mar-18 17:29N 47°08' W 122°39'0 0.0
2015-Mar-18 16:33N 47°08' W 122°39'0 0.0
2015-Mar-18 15:27N 47°08' W 122°39'0 0.0
2015-Mar-18 14:23N 47°08' W 122°39'0 0.0
2015-Mar-18 13:29N 47°08' W 122°39'2 1.8
2015-Mar-18 12:33N 47°10' W 122°39'7 6.6
2015-Mar-18 11:33N 47°15' W 122°34'8 8.1
2015-Mar-18 10:33N 47°24' W 122°32'8 7.8
2015-Mar-18 09:33N 47°31' W 122°29'5 8.2
2015-Mar-18 08:58N 47°36' W 122°28'3 8.2
2015-Mar-18 08:33N 47°39' W 122°28'0 7.9
2015-Mar-18 08:32N 47°39' W 122°28'4 3.6
2015-Mar-18 07:33N 47°40' W 122°23'0 6.4
2015-Mar-18 07:33N 47°40' W 122°23'4 4.3
2015-Mar-18 06:33N 47°39' W 122°17'0 8.6
2015-Mar-18 06:33N 47°39' W 122°17'2 7.1
2015-Mar-18 06:13N 47°41' W 122°15'4 6.9
2015-Mar-18 05:33N 47°45' W 122°16'0 0.5
2015-Mar-18 04:33N 47°45' W 122°15'0 1.1
2015-Mar-18 04:07N 47°45' W 122°16'0 0.1
2015-Mar-18 03:33N 47°45' W 122°16'0 1.5
2015-Mar-18 03:22N 47°45' W 122°16'5 5.9
2015-Mar-18 02:32N 47°40' W 122°15'2 5.2
2015-Mar-18 02:12N 47°39' W 122°17'2 3.8
2015-Mar-18 01:33N 47°39' W 122°20'0 6.2
2015-Mar-18 01:32N 47°39' W 122°21'2 2.4
2015-Mar-18 00:33N 47°40' W 122°24'0 0.0
2015-Mar-18 00:31N 47°40' W 122°24'0 0.2
2015-Mar-17 23:33N 47°40' W 122°24'0 0.0
2015-Mar-17 23:31N 47°40' W 122°24'2 2.3
2015-Mar-17 22:33N 47°39' W 122°27'0 6.8
2015-Mar-17 22:31N 47°39' W 122°27'6 6.6
2015-Mar-17 21:33N 47°32' W 122°28'0 6.7
2015-Mar-17 21:30N 47°32' W 122°28'6 6.8
2015-Mar-17 20:33N 47°26' W 122°31'0 6.8
2015-Mar-17 20:30N 47°26' W 122°32'6 6.5
2015-Mar-17 19:33N 47°20' W 122°33'4 4.2
2015-Mar-17 18:33N 47°15' W 122°34'7 6.6
2015-Mar-17 17:33N 47°10' W 122°39'2 1.7
2015-Mar-17 16:33N 47°08' W 122°39'0 0.0
2015-Mar-17 15:25N 47°08' W 122°39'0 0.0
2015-Mar-17 14:33N 47°08' W 122°39'0 0.0
2015-Mar-17 13:03N 47°08' W 122°39'0 0.1
2015-Mar-17 12:33N 47°08' W 122°39'0 0.0
2015-Mar-17 11:33N 47°08' W 122°39'0 0.0
2015-Mar-17 10:32N 47°08' W 122°39'0 0.1
2015-Mar-17 09:33N 47°08' W 122°39'7 7.4
2015-Mar-17 08:33N 47°15' W 122°34'9 8.9
2015-Mar-17 07:33N 47°24' W 122°32'3 7.5
2015-Mar-17 07:07N 47°27' W 122°31'4 7.7
2015-Mar-17 06:33N 47°31' W 122°29'1 7.7
2015-Mar-17 06:26N 47°32' W 122°28'3 8.3
2015-Mar-17 06:01N 47°35' W 122°26'2 5.2
2015-Mar-17 05:33N 47°36' W 122°22'1 1.3
2015-Mar-17 04:34N 47°34' W 122°21'0 0.0
2015-Mar-17 04:31N 47°34' W 122°21'0 0.0
2015-Mar-17 03:33N 47°34' W 122°21'0 0.0
2015-Mar-17 03:30N 47°34' W 122°21'1 1.4
2015-Mar-17 02:33N 47°36' W 122°22'1 3.1
2015-Mar-17 02:09N 47°34' W 122°21'1 1.0
2015-Mar-17 01:33N 47°34' W 122°21'0 0.0
2015-Mar-17 01:29N 47°34' W 122°21'0 0.1
2015-Mar-17 00:33N 47°34' W 122°21'0 6.3
2015-Mar-17 00:29N 47°34' W 122°21'3 3.6
2015-Mar-16 23:33N 47°32' W 122°24'8 8.2
2015-Mar-16 22:33N 47°24' W 122°21'6 5.6
2015-Mar-16 21:33N 47°20' W 122°26'1 7.5
2015-Mar-16 21:28N 47°19' W 122°26'2 0.8
2015-Mar-16 19:33N 47°18' W 122°28'7 6.5
2015-Mar-16 18:33N 47°24' W 122°32'5 7.7
2015-Mar-16 17:53N 47°29' W 122°30'2 7.0
2015-Mar-16 17:33N 47°32' W 122°30'0 5.3
2015-Mar-16 17:33N 47°32' W 122°30'5 4.6
2015-Mar-16 16:33N 47°34' W 122°37'0 5.1
2015-Mar-16 16:32N 47°34' W 122°37'3 3.5
2015-Mar-16 15:33N 47°34' W 122°32'0 6.6
2015-Mar-16 15:32N 47°34' W 122°32'  

Dump ship's entire track history